Haja K — 3FVK3 — position and weather

sailwx.info

Track history (hours):
 
Tides and Currents Weather Stations Pressure Air Temp Water Temp Dewpoint Dewpoint Depression Visibility Wind Speed Wind Dir Waves Ship Positions

Haja K

Last reported at 2014-Sep-18 01:10 UTC. Time now 2014-Sep-24 04:27 UTC.
Position N 41°02' E 029°00'.

Length 131 m; draft 4.8 m.

Type: Cargo ship. MMSI: 357882000.

Date/timePositionNaut miles runAvg speedWind from/ knotsBaromVisibWave heightAir tempDewpointWater temp
2014-Sep-18 01:10N 41°02' E 029°00'4 6.1
2014-Sep-18 00:32N 40°58' E 028°59'3 0.7
2014-Sep-17 19:31N 40°58' E 028°55'0 0.0
2014-Sep-17 18:07N 40°58' E 028°55'0 0.0
2014-Sep-17 14:31N 40°58' E 028°55'0 0.0
2014-Sep-17 12:31N 40°58' E 028°55'0 0.0
2014-Sep-17 11:33N 40°58' E 028°55'0 0.0
2014-Sep-17 10:31N 40°58' E 028°55'0 0.0
2014-Sep-17 09:33N 40°58' E 028°55'0 0.0
2014-Sep-17 08:33N 40°58' E 028°55'0 0.0
2014-Sep-17 07:31N 40°58' E 028°55'0 0.0
2014-Sep-17 06:33N 40°58' E 028°55'0 0.0
2014-Sep-17 05:29N 40°58' E 028°55'0 0.0
2014-Sep-17 04:33N 40°58' E 028°55'0 0.0
2014-Sep-17 03:33N 40°58' E 028°55'0 0.0
2014-Sep-17 02:31N 40°58' E 028°55'0 0.0
2014-Sep-17 01:32N 40°58' E 028°55'0 0.0
2014-Sep-17 00:32N 40°58' E 028°55'0 0.0
2014-Sep-16 23:33N 40°58' E 028°55'0 0.0
2014-Sep-16 22:33N 40°58' E 028°55'0 0.0
2014-Sep-16 21:33N 40°58' E 028°55'0 0.0
2014-Sep-16 20:32N 40°58' E 028°55'0 0.0
2014-Sep-16 19:33N 40°58' E 028°55'0 0.0
2014-Sep-16 18:33N 40°58' E 028°55'0 0.0
2014-Sep-16 17:33N 40°58' E 028°55'0 0.0
2014-Sep-16 16:33N 40°58' E 028°55'0 0.0
2014-Sep-16 15:33N 40°58' E 028°55'0 0.0
2014-Sep-16 14:32N 40°58' E 028°55'0 0.0
2014-Sep-16 13:31N 40°58' E 028°55'4 3.8
2014-Sep-16 12:33N 40°55' E 028°58'9 8.7
2014-Sep-16 11:33N 40°48' E 029°05'9 9.2
2014-Sep-16 10:33N 40°43' E 029°15'4 4.3
2014-Sep-16 09:33N 40°42' E 029°21'0 0.0
2014-Sep-16 08:33N 40°42' E 029°21'0 0.1
2014-Sep-16 07:32N 40°42' E 029°21'0 0.1
2014-Sep-16 06:33N 40°42' E 029°21'0 0.0
2014-Sep-16 05:30N 40°42' E 029°21'0 0.0
2014-Sep-16 04:32N 40°42' E 029°21'0 0.0
2014-Sep-16 03:33N 40°42' E 029°21'0 0.0
2014-Sep-16 02:11N 40°42' E 029°21'0 0.1
2014-Sep-16 00:29N 40°42' E 029°21'0 0.0
2014-Sep-15 20:29N 40°42' E 029°21'0 0.0
2014-Sep-15 18:28N 40°42' E 029°21'0 0.0
2014-Sep-15 14:16N 40°42' E 029°21'0 0.0
2014-Sep-15 13:04N 40°42' E 029°21'0 0.2
2014-Sep-15 12:32N 40°42' E 029°21'0 0.0
2014-Sep-15 11:33N 40°42' E 029°21'0 0.1
2014-Sep-15 10:32N 40°42' E 029°21'0 0.0
2014-Sep-15 09:31N 40°42' E 029°21'0 0.0
2014-Sep-15 08:32N 40°42' E 029°21'0 0.0
2014-Sep-15 07:32N 40°42' E 029°21'0 0.0
2014-Sep-15 06:33N 40°42' E 029°21'0 0.0
2014-Sep-15 05:33N 40°42' E 029°21'0 0.0
2014-Sep-15 04:29N 40°42' E 029°21'0 0.0
2014-Sep-15 03:30N 40°42' E 029°21'0 0.0
2014-Sep-15 02:33N 40°42' E 029°21'0 0.0
2014-Sep-15 01:33N 40°42' E 029°21'0 0.0
2014-Sep-15 00:32N 40°42' E 029°21'0 0.0
2014-Sep-14 23:31N 40°42' E 029°21'0 0.0
2014-Sep-14 22:31N 40°42' E 029°21'0 0.0
2014-Sep-14 21:33N 40°42' E 029°21'0 0.0
2014-Sep-14 20:33N 40°42' E 029°21'0 0.0
2014-Sep-14 19:33N 40°42' E 029°21'0 0.0
2014-Sep-14 18:33N 40°42' E 029°21'0 0.0
2014-Sep-14 17:32N 40°42' E 029°21'0 0.0
2014-Sep-14 16:32N 40°42' E 029°21'0 0.0
2014-Sep-14 15:29N 40°42' E 029°21'0 0.0
2014-Sep-14 14:33N 40°42' E 029°21'0 0.0
2014-Sep-14 13:32N 40°42' E 029°21'0 0.1
2014-Sep-14 12:33N 40°42' E 029°21'0 0.0
2014-Sep-14 11:33N 40°42' E 029°21'0 0.0
2014-Sep-14 10:33N 40°42' E 029°21'0 0.0
2014-Sep-14 09:32N 40°42' E 029°21'0 0.0
2014-Sep-14 08:33N 40°42' E 029°21'0 0.0
2014-Sep-14 07:33N 40°42' E 029°21'0 0.0
2014-Sep-14 06:33N 40°42' E 029°21'0 0.0
2014-Sep-14 05:28N 40°42' E 029°21'0 0.0
2014-Sep-14 04:32N 40°42' E 029°21'0 0.0
2014-Sep-14 03:33N 40°42' E 029°21'0 0.0
2014-Sep-14 02:33N 40°42' E 029°21'0 0.0
2014-Sep-14 01:33N 40°42' E 029°21'0 0.0
2014-Sep-13 21:31N 40°42' E 029°21'0 0.1
2014-Sep-13 20:32N 40°42' E 029°21'0 0.0
2014-Sep-13 19:32N 40°42' E 029°21'0 0.0
2014-Sep-13 18:33N 40°42' E 029°21'0 0.0
2014-Sep-13 17:33N 40°42' E 029°21'0 0.0
2014-Sep-13 16:32N 40°42' E 029°21'0 0.0
2014-Sep-13 15:32N 40°42' E 029°21'0 0.0
2014-Sep-13 14:33N 40°42' E 029°21'0 0.0
2014-Sep-13 13:32N 40°42' E 029°21'0 0.1
2014-Sep-13 12:32N 40°42' E 029°21'0 0.0
2014-Sep-13 11:33N 40°42' E 029°21'0 0.1
2014-Sep-13 10:33N 40°42' E 029°21'0 0.0
2014-Sep-13 09:33N 40°42' E 029°21'0 0.1
2014-Sep-13 08:32N 40°42' E 029°21'0 0.1
2014-Sep-13 07:33N 40°42' E 029°21'0 0.0
2014-Sep-13 06:33N 40°42' E 029°21'0 0.0
2014-Sep-13 05:33N 40°42' E 029°21'0 0.0
2014-Sep-13 04:33N 40°42' E 029°21'0 0.0
2014-Sep-13 03:33N 40°42' E 029°21'0 0.0
2014-Sep-13 02:33N 40°42' E 029°21'0 0.0
2014-Sep-13 01:33N 40°42' E 029°21'0 0.0
2014-Sep-13 00:33N 40°42' E 029°21'0 0.0
2014-Sep-12 23:33N 40°42' E 029°21'0 0.0
2014-Sep-12 22:33N 40°42' E 029°21'0 0.0
2014-Sep-12 21:30N 40°42' E 029°21'0 0.0
2014-Sep-12 20:33N 40°42' E 029°21'0 0.0
2014-Sep-12 19:32N 40°42' E 029°21'0 0.0
2014-Sep-12 18:33N 40°42' E 029°21'0 0.0
2014-Sep-12 17:33N 40°42' E 029°21'0 0.0
2014-Sep-12 16:32N 40°42' E 029°21'0 0.0
2014-Sep-12 15:33N 40°42' E 029°21'0 0.2
2014-Sep-12 14:32N 40°42' E 029°21'0 0.0
2014-Sep-12 13:33N 40°42' E 029°21'0 0.0
2014-Sep-12 12:33N 40°42' E 029°21'0 0.0
2014-Sep-12 07:08N 40°42' E 029°21'0 0.1
2014-Sep-12 06:33N 40°42' E 029°21'0 0.0
2014-Sep-12 05:33N 40°42' E 029°21'0 0.0
2014-Sep-12 04:33N 40°42' E 029°21'0 0.0
2014-Sep-12 03:32N 40°42' E 029°21'0 0.0
2014-Sep-12 02:31N 40°42' E 029°21'0 0.0
2014-Sep-12 01:33N 40°42' E 029°21'0 0.0
2014-Sep-12 00:32N 40°42' E 029°21'0 0.0
2014-Sep-11 23:33N 40°42' E 029°21'0 0.0
2014-Sep-11 22:32N 40°42' E 029°21'0 0.0
2014-Sep-11 21:33N 40°42' E 029°21'0 0.0
2014-Sep-11 20:33N 40°42' E 029°21'0 0.0
2014-Sep-11 19:32N 40°42' E 029°21'0 0.0
2014-Sep-11 18:33N 40°42' E 029°21'0 0.0
2014-Sep-11 17:29N 40°42' E 029°21'0 0.0
2014-Sep-11 16:33N 40°42' E 029°21'0 0.0
2014-Sep-11 15:33N 40°42' E 029°21'0 0.0
2014-Sep-11 14:25N 40°42' E 029°21'0 0.0
2014-Sep-11 13:33N 40°42' E 029°21'0 0.0
2014-Sep-11 12:31N 40°42' E 029°21'0 0.0
2014-Sep-11 11:33N 40°42' E 029°21'0 0.0
2014-Sep-11 10:32N 40°42' E 029°21'0 0.0
2014-Sep-11 09:33N 40°42' E 029°21'0 0.0
2014-Sep-11 08:33N 40°42' E 029°21'0 0.0
2014-Sep-11 07:32N 40°42' E 029°21'0 0.0
2014-Sep-11 06:32N 40°42' E 029°21'0 0.1
2014-Sep-11 05:33N 40°42' E 029°21'0 0.0
2014-Sep-11 04:30N 40°42' E 029°21'0 0.0
2014-Sep-11 03:33N 40°42' E 029°21'0 0.0
2014-Sep-11 02:33N 40°42' E 029°21'0 0.0
2014-Sep-11 01:33N 40°42' E 029°21'0 0.0
2014-Sep-11 00:33N 40°42' E 029°21'0 0.0
2014-Sep-10 23:33N 40°42' E 029°21'0 0.0
2014-Sep-10 22:33N 40°42' E 029°21'0 0.0
2014-Sep-10 21:33N 40°42' E 029°21'0 0.0
2014-Sep-10 20:33N 40°42' E 029°21'0 0.0
2014-Sep-10 19:33N 40°42' E 029°21'0 0.0
2014-Sep-10 18:33N 40°42' E 029°21'0 0.0
2014-Sep-10 17:33N 40°42' E 029°21'  
Track history (hours):
 
Tides and Currents Weather Stations Pressure Air Temp Water Temp Dewpoint Dewpoint Depression Visibility Wind Speed Wind Dir Waves Ship Positions

Haja K

Last reported at 2014-Sep-18 01:10 UTC. Time now 2014-Sep-24 04:27 UTC.
Position N 41°02' E 029°00'.

Length 131 m; draft 4.8 m.

Type: Cargo ship. MMSI: 357882000.

Date/timePositionNaut miles runAvg speedWind from/ knotsBaromVisibWave heightAir tempDewpointWater temp
2014-Sep-18 01:10N 41°02' E 029°00'4 6.1
2014-Sep-18 00:32N 40°58' E 028°59'3 0.7
2014-Sep-17 19:31N 40°58' E 028°55'0 0.0
2014-Sep-17 18:07N 40°58' E 028°55'0 0.0
2014-Sep-17 14:31N 40°58' E 028°55'0 0.0
2014-Sep-17 12:31N 40°58' E 028°55'0 0.0
2014-Sep-17 11:33N 40°58' E 028°55'0 0.0
2014-Sep-17 10:31N 40°58' E 028°55'0 0.0
2014-Sep-17 09:33N 40°58' E 028°55'0 0.0
2014-Sep-17 08:33N 40°58' E 028°55'0 0.0
2014-Sep-17 07:31N 40°58' E 028°55'0 0.0
2014-Sep-17 06:33N 40°58' E 028°55'0 0.0
2014-Sep-17 05:29N 40°58' E 028°55'0 0.0
2014-Sep-17 04:33N 40°58' E 028°55'0 0.0
2014-Sep-17 03:33N 40°58' E 028°55'0 0.0
2014-Sep-17 02:31N 40°58' E 028°55'0 0.0
2014-Sep-17 01:32N 40°58' E 028°55'0 0.0
2014-Sep-17 00:32N 40°58' E 028°55'0 0.0
2014-Sep-16 23:33N 40°58' E 028°55'0 0.0
2014-Sep-16 22:33N 40°58' E 028°55'0 0.0
2014-Sep-16 21:33N 40°58' E 028°55'0 0.0
2014-Sep-16 20:32N 40°58' E 028°55'0 0.0
2014-Sep-16 19:33N 40°58' E 028°55'0 0.0
2014-Sep-16 18:33N 40°58' E 028°55'0 0.0
2014-Sep-16 17:33N 40°58' E 028°55'0 0.0
2014-Sep-16 16:33N 40°58' E 028°55'0 0.0
2014-Sep-16 15:33N 40°58' E 028°55'0 0.0
2014-Sep-16 14:32N 40°58' E 028°55'0 0.0
2014-Sep-16 13:31N 40°58' E 028°55'4 3.8
2014-Sep-16 12:33N 40°55' E 028°58'9 8.7
2014-Sep-16 11:33N 40°48' E 029°05'9 9.2
2014-Sep-16 10:33N 40°43' E 029°15'4 4.3
2014-Sep-16 09:33N 40°42' E 029°21'0 0.0
2014-Sep-16 08:33N 40°42' E 029°21'0 0.1
2014-Sep-16 07:32N 40°42' E 029°21'0 0.1
2014-Sep-16 06:33N 40°42' E 029°21'0 0.0
2014-Sep-16 05:30N 40°42' E 029°21'0 0.0
2014-Sep-16 04:32N 40°42' E 029°21'0 0.0
2014-Sep-16 03:33N 40°42' E 029°21'0 0.0
2014-Sep-16 02:11N 40°42' E 029°21'0 0.1
2014-Sep-16 00:29N 40°42' E 029°21'0 0.0
2014-Sep-15 20:29N 40°42' E 029°21'0 0.0
2014-Sep-15 18:28N 40°42' E 029°21'0 0.0
2014-Sep-15 14:16N 40°42' E 029°21'0 0.0
2014-Sep-15 13:04N 40°42' E 029°21'0 0.2
2014-Sep-15 12:32N 40°42' E 029°21'0 0.0
2014-Sep-15 11:33N 40°42' E 029°21'0 0.1
2014-Sep-15 10:32N 40°42' E 029°21'0 0.0
2014-Sep-15 09:31N 40°42' E 029°21'0 0.0
2014-Sep-15 08:32N 40°42' E 029°21'0 0.0
2014-Sep-15 07:32N 40°42' E 029°21'0 0.0
2014-Sep-15 06:33N 40°42' E 029°21'0 0.0
2014-Sep-15 05:33N 40°42' E 029°21'0 0.0
2014-Sep-15 04:29N 40°42' E 029°21'0 0.0
2014-Sep-15 03:30N 40°42' E 029°21'0 0.0
2014-Sep-15 02:33N 40°42' E 029°21'0 0.0
2014-Sep-15 01:33N 40°42' E 029°21'0 0.0
2014-Sep-15 00:32N 40°42' E 029°21'0 0.0
2014-Sep-14 23:31N 40°42' E 029°21'0 0.0
2014-Sep-14 22:31N 40°42' E 029°21'0 0.0
2014-Sep-14 21:33N 40°42' E 029°21'0 0.0
2014-Sep-14 20:33N 40°42' E 029°21'0 0.0
2014-Sep-14 19:33N 40°42' E 029°21'0 0.0
2014-Sep-14 18:33N 40°42' E 029°21'0 0.0
2014-Sep-14 17:32N 40°42' E 029°21'0 0.0
2014-Sep-14 16:32N 40°42' E 029°21'0 0.0
2014-Sep-14 15:29N 40°42' E 029°21'0 0.0
2014-Sep-14 14:33N 40°42' E 029°21'0 0.0
2014-Sep-14 13:32N 40°42' E 029°21'0 0.1
2014-Sep-14 12:33N 40°42' E 029°21'0 0.0
2014-Sep-14 11:33N 40°42' E 029°21'0 0.0
2014-Sep-14 10:33N 40°42' E 029°21'0 0.0
2014-Sep-14 09:32N 40°42' E 029°21'0 0.0
2014-Sep-14 08:33N 40°42' E 029°21'0 0.0
2014-Sep-14 07:33N 40°42' E 029°21'0 0.0
2014-Sep-14 06:33N 40°42' E 029°21'0 0.0
2014-Sep-14 05:28N 40°42' E 029°21'0 0.0
2014-Sep-14 04:32N 40°42' E 029°21'0 0.0
2014-Sep-14 03:33N 40°42' E 029°21'0 0.0
2014-Sep-14 02:33N 40°42' E 029°21'0 0.0
2014-Sep-14 01:33N 40°42' E 029°21'0 0.0
2014-Sep-13 21:31N 40°42' E 029°21'0 0.1
2014-Sep-13 20:32N 40°42' E 029°21'0 0.0
2014-Sep-13 19:32N 40°42' E 029°21'0 0.0
2014-Sep-13 18:33N 40°42' E 029°21'0 0.0
2014-Sep-13 17:33N 40°42' E 029°21'0 0.0
2014-Sep-13 16:32N 40°42' E 029°21'0 0.0
2014-Sep-13 15:32N 40°42' E 029°21'0 0.0
2014-Sep-13 14:33N 40°42' E 029°21'0 0.0
2014-Sep-13 13:32N 40°42' E 029°21'0 0.1
2014-Sep-13 12:32N 40°42' E 029°21'0 0.0
2014-Sep-13 11:33N 40°42' E 029°21'0 0.1
2014-Sep-13 10:33N 40°42' E 029°21'0 0.0
2014-Sep-13 09:33N 40°42' E 029°21'0 0.1
2014-Sep-13 08:32N 40°42' E 029°21'0 0.1
2014-Sep-13 07:33N 40°42' E 029°21'0 0.0
2014-Sep-13 06:33N 40°42' E 029°21'0 0.0
2014-Sep-13 05:33N 40°42' E 029°21'0 0.0
2014-Sep-13 04:33N 40°42' E 029°21'0 0.0
2014-Sep-13 03:33N 40°42' E 029°21'0 0.0
2014-Sep-13 02:33N 40°42' E 029°21'0 0.0
2014-Sep-13 01:33N 40°42' E 029°21'0 0.0
2014-Sep-13 00:33N 40°42' E 029°21'0 0.0
2014-Sep-12 23:33N 40°42' E 029°21'0 0.0
2014-Sep-12 22:33N 40°42' E 029°21'0 0.0
2014-Sep-12 21:30N 40°42' E 029°21'0 0.0
2014-Sep-12 20:33N 40°42' E 029°21'0 0.0
2014-Sep-12 19:32N 40°42' E 029°21'0 0.0
2014-Sep-12 18:33N 40°42' E 029°21'0 0.0
2014-Sep-12 17:33N 40°42' E 029°21'0 0.0
2014-Sep-12 16:32N 40°42' E 029°21'0 0.0
2014-Sep-12 15:33N 40°42' E 029°21'0 0.2
2014-Sep-12 14:32N 40°42' E 029°21'0 0.0
2014-Sep-12 13:33N 40°42' E 029°21'0 0.0
2014-Sep-12 12:33N 40°42' E 029°21'0 0.0
2014-Sep-12 07:08N 40°42' E 029°21'0 0.1
2014-Sep-12 06:33N 40°42' E 029°21'0 0.0
2014-Sep-12 05:33N 40°42' E 029°21'0 0.0
2014-Sep-12 04:33N 40°42' E 029°21'0 0.0
2014-Sep-12 03:32N 40°42' E 029°21'0 0.0
2014-Sep-12 02:31N 40°42' E 029°21'0 0.0
2014-Sep-12 01:33N 40°42' E 029°21'0 0.0
2014-Sep-12 00:32N 40°42' E 029°21'0 0.0
2014-Sep-11 23:33N 40°42' E 029°21'0 0.0
2014-Sep-11 22:32N 40°42' E 029°21'0 0.0
2014-Sep-11 21:33N 40°42' E 029°21'0 0.0
2014-Sep-11 20:33N 40°42' E 029°21'0 0.0
2014-Sep-11 19:32N 40°42' E 029°21'0 0.0
2014-Sep-11 18:33N 40°42' E 029°21'0 0.0
2014-Sep-11 17:29N 40°42' E 029°21'0 0.0
2014-Sep-11 16:33N 40°42' E 029°21'0 0.0
2014-Sep-11 15:33N 40°42' E 029°21'0 0.0
2014-Sep-11 14:25N 40°42' E 029°21'0 0.0
2014-Sep-11 13:33N 40°42' E 029°21'0 0.0
2014-Sep-11 12:31N 40°42' E 029°21'0 0.0
2014-Sep-11 11:33N 40°42' E 029°21'0 0.0
2014-Sep-11 10:32N 40°42' E 029°21'0 0.0
2014-Sep-11 09:33N 40°42' E 029°21'0 0.0
2014-Sep-11 08:33N 40°42' E 029°21'0 0.0
2014-Sep-11 07:32N 40°42' E 029°21'0 0.0
2014-Sep-11 06:32N 40°42' E 029°21'0 0.1
2014-Sep-11 05:33N 40°42' E 029°21'0 0.0
2014-Sep-11 04:30N 40°42' E 029°21'0 0.0
2014-Sep-11 03:33N 40°42' E 029°21'0 0.0
2014-Sep-11 02:33N 40°42' E 029°21'0 0.0
2014-Sep-11 01:33N 40°42' E 029°21'0 0.0
2014-Sep-11 00:33N 40°42' E 029°21'0 0.0
2014-Sep-10 23:33N 40°42' E 029°21'0 0.0
2014-Sep-10 22:33N 40°42' E 029°21'0 0.0
2014-Sep-10 21:33N 40°42' E 029°21'0 0.0
2014-Sep-10 20:33N 40°42' E 029°21'0 0.0
2014-Sep-10 19:33N 40°42' E 029°21'0 0.0
2014-Sep-10 18:33N 40°42' E 029°21'0 0.0
2014-Sep-10 17:33N 40°42' E 029°21'  

Dump ship's entire track history